Calico, South Dakota
Current Conditions -  °F | °C
As of 6:52 PM on Tuesday 21 Oct 2014 (Local Time) from KIEN Reporting Station
Clear Clear  
Wind Chill: 69°   Ceiling: Unl
Heat Index: 69°   Visibility: 10mi
Dew Point: 48°   Wind: 12mph
Humidity: 47%   Direction: 170°S
Pressure: 29.8"   Gusts: NA
Location:  43.3266°N, 102.736°W
Report Text: KIEN 220052Z AUTO 17010KT 10SM CLR 21/09 A2980 RMK AO2 SLP075 T02060089
Loading
Personal Weather Stations






























Interactive Weather Map
Tropical Storm Tracking
New forecast layout! Learn more

10-Day Weather Forecast

Advertisements
Track Severe Weather on mobile